logo
App data

ARK BOX Unlimited

Create, share and download unlimited new Stages for this new arcade remix with integrated Stage editor!
Store | Hub | SteamDB | Site
Developer: PolarityFlow, Adrian Zingg Publisher: PolarityFlow
Genre: Action, Casual, Indie
Languages: English, German, French, Portuguese - Brazil, Portuguese - Portugal
Tags: Action (77), Casual (71), Indie (68), Arcade (65), Retro (62), Level Editor (55), Top-Down Shooter (53), 2D (51), 1980s (49), 1990's (47), Old School (44), Controller (41), Score Attack (34), Singleplayer (32), Sandbox (30), Games Workshop (27), Remake (26)
Category: Single-player, Multi-player, Shared/Split Screen, Steam Achievements, Full controller support, Steam Trading Cards, Steam Workshop, Stats, Steam Leaderboards, Includes level editor, Remote Play Together, Family Sharing
Release date: Nov 29, 2016
Price: $4.99
Owners: 0 .. 20,000
Followers: 0

Steam Spy is still in beta, so expect major bugs.

Owners data:

Access restricted.

This feature is only available to users with special access rights. Sorry.

If you want to proceed, you need to register or log in first and then back Steam Spy on Patreon. Look for Indie or Pro pledge.

Don't forget to use the same email as on Steam Spy!

If you've recently backed Steam Spy on Patreon, please note, that it might take around 15 minutes for your access rights to sync. In most cases you'll need to re-login on Steam Spy too.

Audience in 2 weeks:

Access restricted.

This feature is only available to users with special access rights. Sorry.

If you want to proceed, you need to register or log in first and then back Steam Spy on Patreon. Look for Indie or Pro pledge.

Don't forget to use the same email as on Steam Spy!

If you've recently backed Steam Spy on Patreon, please note, that it might take around 15 minutes for your access rights to sync. In most cases you'll need to re-login on Steam Spy too.

Peak daily concurrent players:

CCU data courtesy of SteamDB. Used with permission.

Hourly concurrent players:

Daily Twitch stats:

Hourly Twitch stats:

Followers over time

Access restricted.

This feature is only available to users with special access rights. Sorry.

If you want to proceed, you need to register or log in first and then back Steam Spy on Patreon. Look for Indie or Pro pledge.

Don't forget to use the same email as on Steam Spy!

If you've recently backed Steam Spy on Patreon, please note, that it might take around 15 minutes for your access rights to sync. In most cases you'll need to re-login on Steam Spy too.

Views for top 50 videos on YouTube for this game:

Games similar to this one:

# Game Release date
Price
Score rank
(Userscore / Metascore)
Owners
Players
Playtime (Median)
1 Sam & Max 104: Abe Lincoln Must Die! Feb 22, 2007 N/AN/A (N/A)1,000,000 .. 2,000,0000%00:00 (00:00)
2 Starscape Mar 27, 2003 $7.99N/A (N/A)20,000 .. 50,0000%00:00 (00:00)
3 Bionic Commando Jul 28, 2009 $9.99N/A (N/A/69%)200,000 .. 500,0000%00:00 (00:00)
4 APOX Jan 20, 2011 $14.99N/A (N/A/48%)20,000 .. 50,0000%00:00 (00:00)
5 LocoCycle Feb 14, 2014 $9.99N/A (N/A)20,000 .. 50,0000%00:00 (00:00)
6 Marc Eckō's Getting Up: Contents Under Pressure Feb 14, 2006 $14.99N/A (N/A/69%)100,000 .. 200,0000%00:00 (00:00)
7 US and THEM Mar 8, 2010 $2.99N/A (N/A)20,000 .. 50,0000%00:00 (00:00)
8 Avoid - Sensory Overload Apr 8, 2014 $4.99N/A (N/A)50,000 .. 100,0000%00:00 (00:00)
9 Zoo Empire Aug 1, 2004 $6.99N/A (N/A/59%)20,000 .. 50,0000%00:00 (00:00)
10 El Matador Sep 25, 2006 $3.99N/A (N/A/54%)100,000 .. 200,0000%00:00 (00:00)
11 Zombies on a Plane Mar 25, 2016 $4.99N/A (N/A)20,000 .. 50,0000%00:00 (00:00)
12 Pure Chess Grandmaster Edition Sep 9, 2016 $15.99N/A (N/A)20,000 .. 50,0000%00:00 (00:00)
13 Disney Pirates of the Caribbean: At Worlds End May 22, 2007 $19.99N/A (N/A)20,000 .. 50,0000%00:00 (00:00)
14 Radiant Defense Jul 11, 2014 $9.99N/A (N/A)0 .. 20,0000%00:00 (00:00)
15 #KILLALLZOMBIES Aug 10, 2016 $9.99N/A (N/A)50,000 .. 100,0000%00:00 (00:00)
16 Time of Fury Jul 18, 2014 $0.99N/A (N/A)50,000 .. 100,0000%00:00 (00:00)
17 Toxic Bunny HD Jul 18, 2014 $5.99N/A (N/A)0 .. 20,0000%00:00 (00:00)
18 World War 2: Time of Wrath Jun 15, 2009 $0.99N/A (N/A)50,000 .. 100,0000%00:00 (00:00)
19 Frontline : Road to Moscow Aug 8, 2014 $9.99N/A (N/A)20,000 .. 50,0000%00:00 (00:00)
20 Fractured Soul Feb 5, 2015 $9.99N/A (N/A)0 .. 20,0000%00:00 (00:00)
21 Gold Rush! Classic Dec 23, 1988 $2.99N/A (N/A)200,000 .. 500,0000%00:00 (00:00)
22 The Sun at Night Aug 1, 2014 $4.99N/A (N/A/59%)0 .. 20,0000%00:00 (00:00)
23 Daedalus - No Escape Oct 28, 2014 FreeN/A (N/A)50,000 .. 100,0000%00:00 (00:00)
24 Disney Alice in Wonderland Mar 2, 2010 $19.99N/A (N/A/63%)20,000 .. 50,0000%00:00 (00:00)
25 Cubesis Aug 22, 2014 $0.99N/A (N/A)20,000 .. 50,0000%00:00 (00:00)
26 SunAge: Battle for Elysium Dec 15, 2014 $14.99N/A (N/A)0 .. 20,0000%00:00 (00:00)
27 Run or Die Dec 11, 2014 $0.99N/A (N/A)20,000 .. 50,0000%00:00 (00:00)
28 Seven Kingdoms 2 HD Feb 4, 2015 $3.99N/A (N/A)50,000 .. 100,0000%00:00 (00:00)
29 HitBox Jan 30, 2017 FreeN/A (N/A)20,000 .. 50,0000%00:00 (00:00)
30 Garden Rescue Feb 2, 2015 $3.99N/A (N/A)100,000 .. 200,0000%00:00 (00:00)
31 UFHO2 Apr 1, 2014 FreeN/A (N/A)0 .. 20,0000%00:00 (00:00)
32 Spirit of War Mar 12, 2015 $9.99N/A (N/A)0 .. 20,0000%00:00 (00:00)
33 Kaiju Panic Oct 9, 2015 $9.99N/A (N/A)0 .. 20,0000%00:00 (00:00)
34 Aces of the Luftwaffe May 6, 2015 $4.99N/A (N/A)20,000 .. 50,0000%00:00 (00:00)
35 We Are Legion Aug 7, 2015 $9.99N/A (N/A)0 .. 20,0000%00:00 (00:00)
36 Decisive Campaigns: Case Blue Jul 16, 2012 $39.99N/A (N/A)0 .. 20,0000%00:00 (00:00)
37 Cuban Missile Crisis: Ice Crusade Jul 29, 2005 $4.99N/A (N/A)20,000 .. 50,0000%00:00 (00:00)
38 Bio Menace Aug 3, 1993 N/AN/A (N/A)0 .. 20,0000%00:00 (00:00)
39 Paganitzu Oct 1, 1991 $4.99N/A (N/A)0 .. 20,0000%00:00 (00:00)
40 Monuments of Mars Jan 1, 1990 N/AN/A (N/A)20,000 .. 50,0000%00:00 (00:00)
41 Xenophage: Alien Bloodsport Dec 29, 1995 N/AN/A (N/A)20,000 .. 50,0000%00:00 (00:00)
42 NOBUNAGA'S AMBITION: Kakushin with Power Up Kit Jun 25, 2015 $54.99N/A (N/A)0 .. 20,0000%00:00 (00:00)
43 NOBUNAGA'S AMBITION: Tendou with Power Up Kit Jun 25, 2015 $54.99N/A (N/A)0 .. 20,000100%05:12 (05:12)
44 Star Trek: Judgment Rites May 8, 2015 $9.99N/A (N/A)20,000 .. 50,0000%00:00 (00:00)
45 Ravenmark: Scourge of Estellion Sep 10, 2015 $14.99N/A (N/A/75%)20,000 .. 50,0000%00:00 (00:00)
46 Cue Club 2: Pool & Snooker Mar 7, 2016 $18.99N/A (N/A)100,000 .. 200,0000%00:00 (00:00)
47 Super Mutant Alien Assault Aug 20, 2015 $9.99N/A (N/A)20,000 .. 50,0000%00:00 (00:00)
48 Apocalypse: Party's Over May 30, 2016 N/AN/A (N/A)0 .. 20,0000%00:00 (00:00)
49 Scourge of War: Waterloo Nov 19, 2015 N/AN/A (N/A)20,000 .. 50,0000%00:00 (00:00)
50 Explosionade DX Sep 23, 2015 $3.99N/A (N/A)50,000 .. 100,0000%00:00 (00:00)
51 Fortify Apr 8, 2016 $4.99N/A (N/A)20,000 .. 50,0000%00:00 (00:00)
52 Bezier Mar 3, 2016 $9.99N/A (N/A)20,000 .. 50,0000%00:00 (00:00)
53 Princess Kaguya: Legend of the Moon Warrior Aug 4, 2015 $10.99N/A (N/A)0 .. 20,0000%00:00 (00:00)
54 Russian Front Jul 23, 2015 $14.99N/A (N/A)20,000 .. 50,0000%00:00 (00:00)
55 Caladrius Blaze Jan 12, 2017 $19.99N/A (N/A)20,000 .. 50,0000%00:00 (00:00)
56 Azure Striker Gunvolt Aug 28, 2015 $14.99N/A (N/A)50,000 .. 100,0000%00:00 (00:00)
57 Sir! I'd Like To Report A Bug! Oct 19, 2015 $1.99N/A (N/A)20,000 .. 50,0000%00:00 (00:00)
58 Tank Battle: 1944 Mar 1, 2016 $4.99N/A (N/A)50,000 .. 100,0000%00:00 (00:00)
59 Space Food Truck Mar 25, 2016 $9.99N/A (N/A)0 .. 20,0000%00:00 (00:00)
60 Porradaria Upgrade Oct 2, 2013 N/AN/A (N/A)20,000 .. 50,0000%00:00 (00:00)
61 Normality Jun 30, 1996 $0.74N/A (N/A)200,000 .. 500,0000%00:00 (00:00)
62 Wuppo: Definitive Edition Sep 29, 2016 $14.99N/A (N/A/78%)500,000 .. 1,000,0000%00:00 (00:00)
63 Life in Bunker Feb 25, 2016 $15.99N/A (N/A)50,000 .. 100,0000%00:00 (00:00)
64 Dungeon Manager ZV Oct 16, 2015 $9.99N/A (N/A)0 .. 20,0000%00:00 (00:00)
65 Age of Barbarian Extended Cut May 20, 2016 $12.99N/A (N/A)50,000 .. 100,0000%00:00 (00:00)
66 ARCADE GAME SERIES: Ms. PAC-MAN Apr 19, 2016 $3.99N/A (N/A)20,000 .. 50,0000%00:00 (00:00)
67 Death by Game Show Jan 22, 2016 $1.99N/A (N/A)0 .. 20,0000%00:00 (00:00)
68 Acorn Assault: Rodent Revolution Mar 2, 2016 N/AN/A (N/A)0 .. 20,0000%00:00 (00:00)
69 Rocket Fist May 12, 2016 $4.99N/A (N/A)0 .. 20,0000%00:00 (00:00)
70 Cluck Yegger in Escape From The Planet of The Poultroid Nov 9, 2015 $2.99N/A (N/A)0 .. 20,0000%00:00 (00:00)
71 Gurgamoth Feb 16, 2016 $9.99N/A (N/A)0 .. 20,0000%00:00 (00:00)
72 Red Game Without A Great Name Dec 9, 2015 N/AN/A (N/A/55%)20,000 .. 50,0000%00:00 (00:00)
73 1775: Rebellion Sep 29, 2016 $12.49N/A (N/A)20,000 .. 50,0000%00:00 (00:00)
74 Pills4Skills Jan 25, 2016 $2.99N/A (N/A)0 .. 20,0000%00:00 (00:00)
75 ABO MANDO Dec 31, 2015 $0.99N/A (N/A)100,000 .. 200,0000%00:00 (00:00)
76 Shmups Skill Test シューティング技能検定 Jun 9, 2016 $4.99N/A (N/A)0 .. 20,0000%00:00 (00:00)
77 Tethered Feb 27, 2017 $18.99N/A (N/A)0 .. 20,0000%00:00 (00:00)
78 Phoning Home Feb 7, 2017 FreeN/A (N/A/61%)100,000 .. 200,0000%00:00 (00:00)
79 Castle Torgeath: Descent into Darkness Jan 22, 2016 N/AN/A (N/A)0 .. 20,0000%00:00 (00:00)
80 Rush for gold: Alaska Jan 14, 2016 $3.99N/A (N/A)20,000 .. 50,0000%00:00 (00:00)
81 NotCoD May 19, 2016 N/AN/A (N/A)0 .. 20,0000%00:00 (00:00)
82 Civil War: 1863 Jun 21, 2016 $9.99N/A (N/A)20,000 .. 50,0000%00:00 (00:00)
83 Onechanbara Z2: Chaos Jun 2, 2016 $39.99N/A (N/A)20,000 .. 50,0000%00:00 (00:00)
84 Planar Conquest May 30, 2016 $0.99N/A (N/A/53%)200,000 .. 500,0000%00:00 (00:00)
85 Seven Kingdoms: Ancient Adversaries Jun 8, 1998 $5.99N/A (N/A)20,000 .. 50,0000%00:00 (00:00)
86 Madness Cubed May 12, 2016 $1.99N/A (N/A)100,000 .. 200,0000%00:00 (00:00)
87 Plancon: Space Conflict Aug 8, 2016 $1.6N/A (N/A)50,000 .. 100,0000%00:00 (00:00)
88 Stars in Shadow Jan 19, 2017 $4.99N/A (N/A/75%)20,000 .. 50,0000%00:00 (00:00)
89 VERSUS SQUAD Oct 26, 2016 $7.99N/A (N/A)100,000 .. 200,0000%00:00 (00:00)
90 ORCS May 20, 2016 $0.55N/A (N/A)50,000 .. 100,0000%00:00 (00:00)
91 Weird Hero Nov 18, 2016 $3.99N/A (N/A)20,000 .. 50,0000%00:00 (00:00)
92 Bot Vice Jul 11, 2016 $1.99N/A (N/A)100,000 .. 200,0000%00:00 (00:00)
93 Graveyard Shift Oct 20, 2016 $1.99N/A (N/A)20,000 .. 50,0000%00:00 (00:00)
94 Board Defenders Sep 6, 2016 $4.99N/A (N/A)0 .. 20,0000%00:00 (00:00)
95 Death's Hangover Jan 20, 2017 $4.99N/A (N/A)50,000 .. 100,0000%00:00 (00:00)
96 Lazerbait Oct 14, 2016 FreeN/A (N/A)20,000 .. 50,0000%00:00 (00:00)
97 reconquest Dec 16, 2016 $4.79N/A (N/A)0 .. 20,0000%00:00 (00:00)
98 Lethal VR Nov 8, 2016 $4.99N/A (N/A/66%)20,000 .. 50,0000%00:00 (00:00)
99 Civil War: 1862 Oct 6, 2016 $9.99N/A (N/A)20,000 .. 50,0000%00:00 (00:00)
100 Disney Infinity 3.0: Gold Edition Dec 9, 2016 $29.99N/A (N/A)50,000 .. 100,00011.11%00:16 (00:08)
101 Death Dojo Nov 8, 2016 FreeN/A (N/A)0 .. 20,0000%00:00 (00:00)
102 Cavern Escape Extremely Hard game!!! Feb 20, 2017 $13.99N/A (N/A)100,000 .. 200,0000%00:00 (00:00)
103 NightZ Feb 14, 2017 $0.99N/A (N/A)0 .. 20,0000%00:00 (00:00)
104 Mysterium: A Psychic Clue Game Jan 12, 2017 $6.99N/A (N/A)100,000 .. 200,0000%00:00 (00:00)
105 Leap Up no jutsu Dec 22, 2016 $3.49N/A (N/A)100,000 .. 200,0000%00:00 (00:00)
106 2 Ninjas 1 Cup Feb 3, 2017 $0.69N/A (N/A)50,000 .. 100,0000%00:00 (00:00)
107 DEFCON VR Feb 15, 2017 FreeN/A (N/A/84%)0 .. 20,0000%00:00 (00:00)
108 Space Fist Feb 21, 2017 $15.99N/A (N/A)0 .. 20,0000%00:00 (00:00)

Tags over time:

Access restricted.

This feature is only available to users with special access rights. Sorry.

If you want to proceed, you need to register or log in first and then back Steam Spy on Patreon. Look for Indie or Pro pledge.

Don't forget to use the same email as on Steam Spy!

If you've recently backed Steam Spy on Patreon, please note, that it might take around 15 minutes for your access rights to sync. In most cases you'll need to re-login on Steam Spy too.

Owners of this game also own:

Access restricted.

This feature is only available to users with special access rights. Sorry.

If you want to proceed, you need to register or log in first and then back Steam Spy on Patreon. Look for Indie or Pro pledge.

Don't forget to use the same email as on Steam Spy!

If you've recently backed Steam Spy on Patreon, please note, that it might take around 15 minutes for your access rights to sync. In most cases you'll need to re-login on Steam Spy too.

Playtime distribution:

Access restricted.

This feature is only available to users with special access rights. Sorry.

If you want to proceed, you need to register or log in first and then back Steam Spy on Patreon. Look for Indie or Pro pledge.

Don't forget to use the same email as on Steam Spy!

If you've recently backed Steam Spy on Patreon, please note, that it might take around 15 minutes for your access rights to sync. In most cases you'll need to re-login on Steam Spy too.

Playtime (2 weeks):

Access restricted.

This feature is only available to users with special access rights. Sorry.

If you want to proceed, you need to register or log in first and then back Steam Spy on Patreon. Look for Indie or Pro pledge.

Don't forget to use the same email as on Steam Spy!

If you've recently backed Steam Spy on Patreon, please note, that it might take around 15 minutes for your access rights to sync. In most cases you'll need to re-login on Steam Spy too.

User reviews:

Login required.

Please register or log in to see this information.